sensor_id;sensor_type;location;lat;lon;timestamp;pressure;altitude;pressure_sealevel;temperature;humidity
61128;BME280;47013;42.664;23.242;2023-02-20T00:01:20;94360.88;;;9.81;60.08
61128;BME280;47013;42.664;23.242;2023-02-20T00:03:46;94359.31;;;9.80;60.38
61128;BME280;47013;42.664;23.242;2023-02-20T00:06:11;94360.47;;;9.75;60.99
61128;BME280;47013;42.664;23.242;2023-02-20T00:08:37;94355.81;;;9.75;61.05
61128;BME280;47013;42.664;23.242;2023-02-20T00:11:02;94362.81;;;9.73;61.47
61128;BME280;47013;42.664;23.242;2023-02-20T00:13:28;94355.47;;;9.63;61.83
61128;BME280;47013;42.664;23.242;2023-02-20T00:15:53;94356.63;;;9.55;62.33
61128;BME280;47013;42.664;23.242;2023-02-20T00:18:19;94364.38;;;9.56;62.81
61128;BME280;47013;42.664;23.242;2023-02-20T00:20:44;94356.25;;;9.49;62.91
61128;BME280;47013;42.664;23.242;2023-02-20T00:23:10;94351.25;;;9.51;62.73
61128;BME280;47013;42.664;23.242;2023-02-20T00:25:35;94342.34;;;9.40;63.43
61128;BME280;47013;42.664;23.242;2023-02-20T00:28:01;94346.56;;;9.23;64.38
61128;BME280;47013;42.664;23.242;2023-02-20T00:30:26;94341.97;;;9.27;64.05
61128;BME280;47013;42.664;23.242;2023-02-20T00:32:53;94336.53;;;9.16;64.72
61128;BME280;47013;42.664;23.242;2023-02-20T00:35:19;94337.31;;;9.17;64.71
61128;BME280;47013;42.664;23.242;2023-02-20T00:37:46;94332.69;;;9.14;64.93
61128;BME280;47013;42.664;23.242;2023-02-20T00:40:12;94324.53;;;9.10;65.20
61128;BME280;47013;42.664;23.242;2023-02-20T00:42:38;94316.44;;;9.00;65.51
61128;BME280;47013;42.664;23.242;2023-02-20T00:45:05;94318.75;;;9.05;65.30
61128;BME280;47013;42.664;23.242;2023-02-20T00:47:30;94323.41;;;9.11;65.35
61128;BME280;47013;42.664;23.242;2023-02-20T00:49:56;94331.91;;;9.13;64.58
61128;BME280;47013;42.664;23.242;2023-02-20T00:52:21;94354.31;;;9.14;64.28
61128;BME280;47013;42.664;23.242;2023-02-20T00:54:47;94360.47;;;9.11;64.03
61128;BME280;47013;42.664;23.242;2023-02-20T00:57:12;94365.13;;;9.21;63.80
61128;BME280;47013;42.664;23.242;2023-02-20T00:59:38;94355.47;;;9.16;63.84
61128;BME280;47013;42.664;23.242;2023-02-20T01:02:03;94367.09;;;9.13;63.63
61128;BME280;47013;42.664;23.242;2023-02-20T01:04:28;94373.25;;;9.18;63.64
61128;BME280;47013;42.664;23.242;2023-02-20T01:06:54;94385.22;;;9.09;64.25
61128;BME280;47013;42.664;23.242;2023-02-20T01:09:19;94396.84;;;9.13;64.68
61128;BME280;47013;42.664;23.242;2023-02-20T01:11:45;94400.69;;;9.09;65.04
61128;BME280;47013;42.664;23.242;2023-02-20T01:14:11;94400.69;;;9.02;65.84
61128;BME280;47013;42.664;23.242;2023-02-20T01:16:46;94400.28;;;9.10;65.41
61128;BME280;47013;42.664;23.242;2023-02-20T01:19:12;94383.28;;;9.03;66.38
61128;BME280;47013;42.664;23.242;2023-02-20T01:21:38;94392.94;;;9.07;66.51
61128;BME280;47013;42.664;23.242;2023-02-20T01:24:03;94396.81;;;9.03;66.63
61128;BME280;47013;42.664;23.242;2023-02-20T01:26:29;94406.09;;;9.05;66.75
61128;BME280;47013;42.664;23.242;2023-02-20T01:28:54;94403.00;;;9.10;66.63
61128;BME280;47013;42.664;23.242;2023-02-20T01:31:20;94389.50;;;9.14;66.26
61128;BME280;47013;42.664;23.242;2023-02-20T01:33:45;94395.66;;;9.18;66.13
61128;BME280;47013;42.664;23.242;2023-02-20T01:36:11;94391.81;;;9.19;68.09
61128;BME280;47013;42.664;23.242;2023-02-20T01:38:39;94406.88;;;9.20;68.71
61128;BME280;47013;42.664;23.242;2023-02-20T01:41:04;94406.88;;;9.13;68.29
61128;BME280;47013;42.664;23.242;2023-02-20T01:43:31;94407.66;;;9.21;69.55
61128;BME280;47013;42.664;23.242;2023-02-20T01:46:58;94419.25;;;9.14;69.41
61128;BME280;47013;42.664;23.242;2023-02-20T01:49:07;94434.69;;;9.06;69.69
61128;BME280;47013;42.664;23.242;2023-02-20T01:51:37;94414.22;;;9.12;70.16
61128;BME280;47013;42.664;23.242;2023-02-20T01:54:07;94415.00;;;9.20;69.64
61128;BME280;47013;42.664;23.242;2023-02-20T01:56:33;94430.06;;;9.14;69.45
61128;BME280;47013;42.664;23.242;2023-02-20T01:58:59;94423.09;;;9.02;69.35
61128;BME280;47013;42.664;23.242;2023-02-20T02:01:25;94442.78;;;9.03;69.63
61128;BME280;47013;42.664;23.242;2023-02-20T02:03:56;94445.06;;;8.94;69.83
61128;BME280;47013;42.664;23.242;2023-02-20T02:06:23;94428.44;;;8.77;69.50
61128;BME280;47013;42.664;23.242;2023-02-20T02:08:50;94435.00;;;8.76;69.37
61128;BME280;47013;42.664;23.242;2023-02-20T02:11:22;94433.41;;;8.72;69.01
61128;BME280;47013;42.664;23.242;2023-02-20T02:13:48;94442.31;;;8.76;68.28
61128;BME280;47013;42.664;23.242;2023-02-20T02:40:13;94457.03;;;8.13;69.30
61128;BME280;47013;42.664;23.242;2023-02-20T02:45:27;94455.44;;;8.05;69.34
61128;BME280;47013;42.664;23.242;2023-02-20T02:48:16;94458.13;;;8.01;69.16
61128;BME280;47013;42.664;23.242;2023-02-20T02:50:45;94459.66;;;8.02;69.31
61128;BME280;47013;42.664;23.242;2023-02-20T02:53:12;94464.31;;;8.05;69.20
61128;BME280;47013;42.664;23.242;2023-02-20T02:55:39;94453.47;;;7.98;69.28
61128;BME280;47013;42.664;23.242;2023-02-20T02:58:04;94451.84;;;7.86;69.68
61128;BME280;47013;42.664;23.242;2023-02-20T03:00:43;94448.00;;;7.91;69.68
61128;BME280;47013;42.664;23.242;2023-02-20T03:08:47;94472.72;;;7.93;69.45
61128;BME280;47013;42.664;23.242;2023-02-20T03:11:20;94475.78;;;7.88;69.64
61128;BME280;47013;42.664;23.242;2023-02-20T03:16:59;94484.25;;;7.86;69.28
61128;BME280;47013;42.664;23.242;2023-02-20T03:19:34;94489.25;;;7.84;69.38
61128;BME280;47013;42.664;23.242;2023-02-20T03:22:01;94492.34;;;7.86;69.01
61128;BME280;47013;42.664;23.242;2023-02-20T03:24:31;94493.09;;;7.83;69.06
61128;BME280;47013;42.664;23.242;2023-02-20T03:26:58;94492.66;;;7.78;69.42
61128;BME280;47013;42.664;23.242;2023-02-20T03:29:34;94484.50;;;7.71;69.25
61128;BME280;47013;42.664;23.242;2023-02-20T03:32:04;94492.53;;;7.63;69.29
61128;BME280;47013;42.664;23.242;2023-02-20T03:34:51;94504.88;;;7.64;69.38
61128;BME280;47013;42.664;23.242;2023-02-20T03:37:36;94496.00;;;7.64;69.28
61128;BME280;47013;42.664;23.242;2023-02-20T03:40:22;94499.72;;;7.45;69.76
61128;BME280;47013;42.664;23.242;2023-02-20T03:43:11;94488.25;;;7.59;69.28
61128;BME280;47013;42.664;23.242;2023-02-20T03:45:58;94497.03;;;7.49;69.33
61128;BME280;47013;42.664;23.242;2023-02-20T03:48:37;94503.97;;;7.50;69.09
61128;BME280;47013;42.664;23.242;2023-02-20T03:51:05;94500.59;;;7.56;68.85
61128;BME280;47013;42.664;23.242;2023-02-20T03:53:39;94491.94;;;7.40;69.32
61128;BME280;47013;42.664;23.242;2023-02-20T03:56:08;94507.34;;;7.39;69.37
61128;BME280;47013;42.664;23.242;2023-02-20T03:58:38;94519.31;;;7.42;68.79
61128;BME280;47013;42.664;23.242;2023-02-20T04:01:07;94525.84;;;7.41;68.70
61128;BME280;47013;42.664;23.242;2023-02-20T04:03:38;94531.34;;;7.48;68.29
61128;BME280;47013;42.664;23.242;2023-02-20T04:06:06;94539.44;;;7.48;67.78
61128;BME280;47013;42.664;23.242;2023-02-20T04:08:37;94540.28;;;7.56;68.03
61128;BME280;47013;42.664;23.242;2023-02-20T04:11:09;94549.97;;;7.64;67.85
61128;BME280;47013;42.664;23.242;2023-02-20T04:13:36;94553.47;;;7.68;67.28
61128;BME280;47013;42.664;23.242;2023-02-20T04:16:03;94543.84;;;7.67;67.45
61128;BME280;47013;42.664;23.242;2023-02-20T04:18:29;94551.63;;;7.76;67.28
61128;BME280;47013;42.664;23.242;2023-02-20T04:20:55;94534.28;;;7.77;67.23
61128;BME280;47013;42.664;23.242;2023-02-20T04:23:24;94539.72;;;7.80;67.14
61128;BME280;47013;42.664;23.242;2023-02-20T04:28:19;94534.38;;;7.84;67.70
61128;BME280;47013;42.664;23.242;2023-02-20T04:30:45;94536.22;;;7.76;67.48
61128;BME280;47013;42.664;23.242;2023-02-20T04:33:11;94542.00;;;7.78;67.01
61128;BME280;47013;42.664;23.242;2023-02-20T04:35:38;94556.28;;;7.79;66.32
61128;BME280;47013;42.664;23.242;2023-02-20T04:38:03;94564.78;;;7.81;65.51
61128;BME280;47013;42.664;23.242;2023-02-20T04:40:28;94542.78;;;7.79;64.48
61128;BME280;47013;42.664;23.242;2023-02-20T04:42:54;94543.13;;;7.74;64.08
61128;BME280;47013;42.664;23.242;2023-02-20T04:45:22;94531.53;;;7.69;64.83
61128;BME280;47013;42.664;23.242;2023-02-20T04:47:47;94552.75;;;7.71;65.18
61128;BME280;47013;42.664;23.242;2023-02-20T04:50:20;94540.78;;;7.68;64.92
61128;BME280;47013;42.664;23.242;2023-02-20T04:52:45;94543.81;;;7.63;64.36
61128;BME280;47013;42.664;23.242;2023-02-20T04:55:11;94542.66;;;7.64;64.30
61128;BME280;47013;42.664;23.242;2023-02-20T04:57:36;94540.63;;;7.54;64.32
61128;BME280;47013;42.664;23.242;2023-02-20T05:00:04;94552.19;;;7.55;63.50
61128;BME280;47013;42.664;23.242;2023-02-20T05:02:29;94557.50;;;7.44;63.58
61128;BME280;47013;42.664;23.242;2023-02-20T05:04:55;94560.94;;;7.41;62.84
61128;BME280;47013;42.664;23.242;2023-02-20T05:07:21;94575.16;;;7.38;62.52
61128;BME280;47013;42.664;23.242;2023-02-20T05:09:46;94574.25;;;7.27;62.53
61128;BME280;47013;42.664;23.242;2023-02-20T05:12:11;94573.47;;;7.26;62.35
61128;BME280;47013;42.664;23.242;2023-02-20T05:14:37;94575.38;;;7.22;62.30
61128;BME280;47013;42.664;23.242;2023-02-20T05:17:02;94579.50;;;7.13;62.70
61128;BME280;47013;42.664;23.242;2023-02-20T05:19:28;94579.00;;;7.03;63.19
61128;BME280;47013;42.664;23.242;2023-02-20T05:21:53;94568.78;;;6.86;63.98
61128;BME280;47013;42.664;23.242;2023-02-20T05:24:37;94577.97;;;6.82;64.48
61128;BME280;47013;42.664;23.242;2023-02-20T05:27:02;94585.78;;;6.90;64.22
61128;BME280;47013;42.664;23.242;2023-02-20T05:29:28;94578.09;;;6.92;64.57
61128;BME280;47013;42.664;23.242;2023-02-20T05:31:53;94578.88;;;6.93;64.69
61128;BME280;47013;42.664;23.242;2023-02-20T05:34:18;94591.22;;;6.94;65.07
61128;BME280;47013;42.664;23.242;2023-02-20T05:36:47;94597.81;;;7.00;65.08
61128;BME280;47013;42.664;23.242;2023-02-20T05:39:12;94609.53;;;7.11;64.95
61128;BME280;47013;42.664;23.242;2023-02-20T05:41:37;94612.59;;;7.09;64.93
61128;BME280;47013;42.664;23.242;2023-02-20T05:44:03;94598.34;;;7.09;65.17
61128;BME280;47013;42.664;23.242;2023-02-20T05:46:29;94603.47;;;7.18;64.84
61128;BME280;47013;42.664;23.242;2023-02-20T05:48:54;94595.44;;;7.25;64.46
61128;BME280;47013;42.664;23.242;2023-02-20T05:51:28;94599.31;;;7.27;63.95
61128;BME280;47013;42.664;23.242;2023-02-20T05:53:55;94603.22;;;7.30;63.78
61128;BME280;47013;42.664;23.242;2023-02-20T05:56:20;94602.13;;;7.38;63.33
61128;BME280;47013;42.664;23.242;2023-02-20T05:58:46;94605.44;;;7.24;63.21
61128;BME280;47013;42.664;23.242;2023-02-20T06:01:19;94591.59;;;7.26;63.37
61128;BME280;47013;42.664;23.242;2023-02-20T06:03:45;94597.84;;;7.33;62.58
61128;BME280;47013;42.664;23.242;2023-02-20T06:06:11;94609.28;;;7.23;63.73
61128;BME280;47013;42.664;23.242;2023-02-20T06:08:36;94607.91;;;7.36;62.78
61128;BME280;47013;42.664;23.242;2023-02-20T06:11:01;94613.78;;;7.46;63.14
61128;BME280;47013;42.664;23.242;2023-02-20T06:13:27;94617.34;;;7.53;61.90
61128;BME280;47013;42.664;23.242;2023-02-20T06:15:52;94632.09;;;7.63;62.26
61128;BME280;47013;42.664;23.242;2023-02-20T06:18:18;94625.97;;;7.66;60.61
61128;BME280;47013;42.664;23.242;2023-02-20T06:20:43;94611.75;;;7.69;62.42
61128;BME280;47013;42.664;23.242;2023-02-20T06:23:09;94609.97;;;7.84;62.00
61128;BME280;47013;42.664;23.242;2023-02-20T06:25:34;94633.88;;;7.85;62.66
61128;BME280;47013;42.664;23.242;2023-02-20T06:27:59;94629.00;;;7.98;62.86
61128;BME280;47013;42.664;23.242;2023-02-20T06:30:25;94620.56;;;8.07;61.09
61128;BME280;47013;42.664;23.242;2023-02-20T06:32:50;94635.72;;;8.18;61.93
61128;BME280;47013;42.664;23.242;2023-02-20T06:35:15;94640.72;;;8.16;58.29
61128;BME280;47013;42.664;23.242;2023-02-20T06:37:42;94641.97;;;8.26;59.38
61128;BME280;47013;42.664;23.242;2023-02-20T06:40:07;94644.31;;;8.27;55.78
61128;BME280;47013;42.664;23.242;2023-02-20T06:42:33;94648.19;;;8.30;59.75
61128;BME280;47013;42.664;23.242;2023-02-20T06:44:58;94664.28;;;8.19;59.23
61128;BME280;47013;42.664;23.242;2023-02-20T06:47:24;94657.81;;;8.27;56.91
61128;BME280;47013;42.664;23.242;2023-02-20T06:49:49;94652.31;;;8.17;55.81
61128;BME280;47013;42.664;23.242;2023-02-20T06:52:14;94654.22;;;8.16;55.86
61128;BME280;47013;42.664;23.242;2023-02-20T06:54:40;94656.91;;;8.13;57.57
61128;BME280;47013;42.664;23.242;2023-02-20T06:57:05;94654.59;;;8.15;57.00
61128;BME280;47013;42.664;23.242;2023-02-20T06:59:31;94660.34;;;8.10;57.42
61128;BME280;47013;42.664;23.242;2023-02-20T07:02:04;94667.31;;;8.11;56.80
61128;BME280;47013;42.664;23.242;2023-02-20T07:04:29;94655.69;;;8.07;56.64
61128;BME280;47013;42.664;23.242;2023-02-20T07:06:55;94671.94;;;8.10;55.59
61128;BME280;47013;42.664;23.242;2023-02-20T07:09:20;94673.09;;;8.09;55.75
61128;BME280;47013;42.664;23.242;2023-02-20T07:11:46;94683.94;;;8.16;54.60
61128;BME280;47013;42.664;23.242;2023-02-20T07:14:13;94677.47;;;8.24;54.70
61128;BME280;47013;42.664;23.242;2023-02-20T07:16:38;94690.34;;;8.35;54.15
61128;BME280;47013;42.664;23.242;2023-02-20T07:19:03;94698.13;;;8.43;53.24
61128;BME280;47013;42.664;23.242;2023-02-20T07:21:29;94691.63;;;8.51;52.90
61128;BME280;47013;42.664;23.242;2023-02-20T07:23:54;94697.81;;;8.52;51.50
61128;BME280;47013;42.664;23.242;2023-02-20T07:26:23;94704.00;;;8.52;49.76
61128;BME280;47013;42.664;23.242;2023-02-20T07:28:50;94705.06;;;8.44;49.91
61128;BME280;47013;42.664;23.242;2023-02-20T07:31:15;94702.72;;;8.39;50.68
61128;BME280;47013;42.664;23.242;2023-02-20T07:33:41;94711.63;;;8.43;50.66
61128;BME280;47013;42.664;23.242;2023-02-20T07:36:10;94681.22;;;8.53;49.63
61128;BME280;47013;42.664;23.242;2023-02-20T07:38:36;94692.50;;;8.63;49.67
61128;BME280;47013;42.664;23.242;2023-02-20T07:41:02;94692.59;;;8.73;49.30
61128;BME280;47013;42.664;23.242;2023-02-20T07:43:27;94701.63;;;9.61;58.05
61128;BME280;47013;42.664;23.242;2023-02-20T07:45:53;94695.47;;;9.71;48.06
61128;BME280;47013;42.664;23.242;2023-02-20T07:48:18;94701.28;;;9.66;46.45
61128;BME280;47013;42.664;23.242;2023-02-20T07:50:44;94700.06;;;9.56;45.29
61128;BME280;47013;42.664;23.242;2023-02-20T07:53:13;94709.28;;;9.44;45.17
61128;BME280;47013;42.664;23.242;2023-02-20T07:55:39;94710.47;;;9.51;45.39
61128;BME280;47013;42.664;23.242;2023-02-20T07:58:04;94719.00;;;9.53;45.45
61128;BME280;47013;42.664;23.242;2023-02-20T08:00:29;94714.78;;;9.62;45.20
61128;BME280;47013;42.664;23.242;2023-02-20T08:02:55;94729.13;;;9.70;44.30
61128;BME280;47013;42.664;23.242;2023-02-20T08:05:20;94726.09;;;9.79;44.25
61128;BME280;47013;42.664;23.242;2023-02-20T08:07:47;94721.50;;;10.00;44.14
61128;BME280;47013;42.664;23.242;2023-02-20T08:10:14;94725.03;;;10.12;43.48
61128;BME280;47013;42.664;23.242;2023-02-20T08:12:40;94707.53;;;9.84;43.47
61128;BME280;47013;42.664;23.242;2023-02-20T08:15:06;94728.53;;;10.16;43.27
61128;BME280;47013;42.664;23.242;2023-02-20T08:17:34;94730.16;;;10.34;42.99
61128;BME280;47013;42.664;23.242;2023-02-20T08:19:59;94744.53;;;10.63;42.34
61128;BME280;47013;42.664;23.242;2023-02-20T08:22:25;94716.25;;;10.89;42.16
61128;BME280;47013;42.664;23.242;2023-02-20T08:24:50;94741.84;;;10.99;41.38
61128;BME280;47013;42.664;23.242;2023-02-20T08:27:15;94743.38;;;10.93;41.24
61128;BME280;47013;42.664;23.242;2023-02-20T08:29:41;94743.38;;;11.29;41.41
61128;BME280;47013;42.664;23.242;2023-02-20T08:32:06;94734.06;;;11.30;41.04
61128;BME280;47013;42.664;23.242;2023-02-20T08:34:31;94730.91;;;11.56;41.16
61128;BME280;47013;42.664;23.242;2023-02-20T08:36:57;94730.50;;;11.65;39.53
61128;BME280;47013;42.664;23.242;2023-02-20T08:39:22;94723.53;;;11.57;39.63
61128;BME280;47013;42.664;23.242;2023-02-20T08:41:48;94708.00;;;11.64;39.55
61128;BME280;47013;42.664;23.242;2023-02-20T08:44:13;94701.75;;;11.74;40.23
61128;BME280;47013;42.664;23.242;2023-02-20T08:46:49;94713.34;;;11.96;38.56
61128;BME280;47013;42.664;23.242;2023-02-20T08:49:16;94712.56;;;11.96;38.41
61128;BME280;47013;42.664;23.242;2023-02-20T08:51:51;94714.13;;;11.93;37.48
61128;BME280;47013;42.664;23.242;2023-02-20T08:54:38;94716.50;;;11.77;38.55
61128;BME280;47013;42.664;23.242;2023-02-20T08:57:06;94709.91;;;11.74;38.40
61128;BME280;47013;42.664;23.242;2023-02-20T08:59:31;94702.19;;;11.55;38.55
61128;BME280;47013;42.664;23.242;2023-02-20T09:01:57;94716.91;;;11.72;38.56
61128;BME280;47013;42.664;23.242;2023-02-20T09:04:22;94705.25;;;11.68;39.32
61128;BME280;47013;42.664;23.242;2023-02-20T09:06:48;94696.38;;;11.57;39.32
61128;BME280;47013;42.664;23.242;2023-02-20T09:09:13;94699.91;;;11.32;39.05
61128;BME280;47013;42.664;23.242;2023-02-20T09:11:39;94694.91;;;11.27;40.14
61128;BME280;47013;42.664;23.242;2023-02-20T09:14:04;94693.72;;;11.32;39.69
61128;BME280;47013;42.664;23.242;2023-02-20T09:16:30;94694.50;;;11.32;40.17
61128;BME280;47013;42.664;23.242;2023-02-20T09:18:55;94699.56;;;11.23;40.14
61128;BME280;47013;42.664;23.242;2023-02-20T09:21:44;94706.53;;;11.35;40.67
61128;BME280;47013;42.664;23.242;2023-02-20T09:24:15;94690.22;;;11.38;40.84
61128;BME280;47013;42.664;23.242;2023-02-20T09:26:59;94699.94;;;11.36;40.41
61128;BME280;47013;42.664;23.242;2023-02-20T09:29:45;94692.22;;;11.09;41.26
61128;BME280;47013;42.664;23.242;2023-02-20T09:32:21;94712.38;;;11.05;41.41
61128;BME280;47013;42.664;23.242;2023-02-20T09:34:49;94691.06;;;10.75;42.23
61128;BME280;47013;42.664;23.242;2023-02-20T09:37:31;94707.34;;;10.75;42.73
61128;BME280;47013;42.664;23.242;2023-02-20T09:40:15;94674.81;;;10.57;42.38
61128;BME280;47013;42.664;23.242;2023-02-20T09:43:19;94691.44;;;10.66;42.45
61128;BME280;47013;42.664;23.242;2023-02-20T09:46:03;94661.63;;;10.59;41.95
61128;BME280;47013;42.664;23.242;2023-02-20T09:48:49;94696.50;;;10.89;44.61
61128;BME280;47013;42.664;23.242;2023-02-20T09:51:20;94698.84;;;10.94;43.06
61128;BME280;47013;42.664;23.242;2023-02-20T09:54:19;94687.97;;;11.01;42.66
61128;BME280;47013;42.664;23.242;2023-02-20T09:56:56;94702.69;;;11.07;40.50
61128;BME280;47013;42.664;23.242;2023-02-20T09:59:38;94703.06;;;11.02;40.14
61128;BME280;47013;42.664;23.242;2023-02-20T10:02:22;94706.97;;;11.08;38.37
61128;BME280;47013;42.664;23.242;2023-02-20T10:04:50;94703.81;;;11.28;37.80
61128;BME280;47013;42.664;23.242;2023-02-20T10:07:24;94684.75;;;11.52;37.31
61128;BME280;47013;42.664;23.242;2023-02-20T10:09:50;94703.31;;;11.75;36.69
61128;BME280;47013;42.664;23.242;2023-02-20T10:20:30;94688.16;;;12.55;33.63
61128;BME280;47013;42.664;23.242;2023-02-20T10:23:43;94684.25;;;12.59;33.58
61128;BME280;47013;42.664;23.242;2023-02-20T10:25:52;94689.00;;;12.96;32.75
61128;BME280;47013;42.664;23.242;2023-02-20T10:28:19;94679.91;;;13.14;32.34
61128;BME280;47013;42.664;23.242;2023-02-20T10:33:39;94673.28;;;13.56;31.35
61128;BME280;47013;42.664;23.242;2023-02-20T10:36:25;94670.13;;;13.61;31.52
61128;BME280;47013;42.664;23.242;2023-02-20T10:39:12;94656.59;;;13.84;31.06
61128;BME280;47013;42.664;23.242;2023-02-20T10:41:50;94657.06;;;14.10;30.73
61128;BME280;47013;42.664;23.242;2023-02-20T10:49:21;94643.38;;;14.13;30.84
61128;BME280;47013;42.664;23.242;2023-02-20T10:51:51;94627.41;;;14.12;31.36
61128;BME280;47013;42.664;23.242;2023-02-20T10:54:23;94634.56;;;14.29;30.68
61128;BME280;47013;42.664;23.242;2023-02-20T10:57:25;94637.28;;;14.60;30.19
61128;BME280;47013;42.664;23.242;2023-02-20T11:00:18;94638.81;;;14.61;31.21
61128;BME280;47013;42.664;23.242;2023-02-20T11:02:46;94638.28;;;14.93;30.50
61128;BME280;47013;42.664;23.242;2023-02-20T11:05:18;94649.72;;;14.84;31.23
61128;BME280;47013;42.664;23.242;2023-02-20T11:07:45;94640.50;;;15.01;30.70
61128;BME280;47013;42.664;23.242;2023-02-20T11:10:10;94634.25;;;15.01;30.08
61128;BME280;47013;42.664;23.242;2023-02-20T11:12:40;94625.66;;;15.02;30.36
61128;BME280;47013;42.664;23.242;2023-02-20T11:15:13;94619.66;;;15.11;30.12
61128;BME280;47013;42.664;23.242;2023-02-20T11:17:39;94638.19;;;15.00;30.23
61128;BME280;47013;42.664;23.242;2023-02-20T11:23:01;94634.81;;;15.55;30.15
61128;BME280;47013;42.664;23.242;2023-02-20T11:27:55;94645.47;;;15.50;29.53
61128;BME280;47013;42.664;23.242;2023-02-20T11:30:31;94650.09;;;15.53;30.58
61128;BME280;47013;42.664;23.242;2023-02-20T11:33:17;94647.28;;;15.56;29.90
61128;BME280;47013;42.664;23.242;2023-02-20T11:35:44;94640.13;;;15.43;29.24
61128;BME280;47013;42.664;23.242;2023-02-20T11:40:41;94626.50;;;15.19;29.52
61128;BME280;47013;42.664;23.242;2023-02-20T11:43:31;94619.16;;;15.36;29.56
61128;BME280;47013;42.664;23.242;2023-02-20T11:48:34;94617.06;;;15.67;28.69
61128;BME280;47013;42.664;23.242;2023-02-20T11:51:00;94612.28;;;15.71;29.00
61128;BME280;47013;42.664;23.242;2023-02-20T11:53:28;94614.94;;;15.75;29.27
61128;BME280;47013;42.664;23.242;2023-02-20T11:56:09;94603.78;;;15.85;29.00
61128;BME280;47013;42.664;23.242;2023-02-20T11:58:35;94607.22;;;15.89;28.44
61128;BME280;47013;42.664;23.242;2023-02-20T12:01:01;94603.59;;;15.76;28.48
61128;BME280;47013;42.664;23.242;2023-02-20T12:03:29;94601.00;;;15.69;29.02
61128;BME280;47013;42.664;23.242;2023-02-20T12:05:56;94596.88;;;15.97;28.38
61128;BME280;47013;42.664;23.242;2023-02-20T12:11:12;94598.44;;;15.98;27.95
61128;BME280;47013;42.664;23.242;2023-02-20T12:13:43;94573.38;;;16.00;27.95
61128;BME280;47013;42.664;23.242;2023-02-20T12:19:18;94598.06;;;16.32;27.80
61128;BME280;47013;42.664;23.242;2023-02-20T12:22:37;94608.69;;;16.30;27.87
61128;BME280;47013;42.664;23.242;2023-02-20T12:36:27;94613.16;;;15.45;29.25
61128;BME280;47013;42.664;23.242;2023-02-20T12:45:09;94618.56;;;15.05;29.58
61128;BME280;47013;42.664;23.242;2023-02-20T12:47:40;94619.16;;;14.69;30.16
61128;BME280;47013;42.664;23.242;2023-02-20T12:50:32;94614.72;;;14.56;30.92
61128;BME280;47013;42.664;23.242;2023-02-20T12:53:19;94607.56;;;14.38;31.30
61128;BME280;47013;42.664;23.242;2023-02-20T12:55:57;94605.13;;;13.90;32.04
61128;BME280;47013;42.664;23.242;2023-02-20T12:58:46;94616.50;;;13.51;32.30
61128;BME280;47013;42.664;23.242;2023-02-20T13:01:14;94625.66;;;13.34;33.03
61128;BME280;47013;42.664;23.242;2023-02-20T13:09:02;94605.84;;;12.88;34.34
61128;BME280;47013;42.664;23.242;2023-02-20T13:11:35;94607.53;;;12.79;34.59
61128;BME280;47013;42.664;23.242;2023-02-20T13:19:29;94605.97;;;12.29;35.95
61128;BME280;47013;42.664;23.242;2023-02-20T13:21:57;94604.88;;;12.20;36.92
61128;BME280;47013;42.664;23.242;2023-02-20T13:26:53;94626.41;;;11.93;37.10
61128;BME280;47013;42.664;23.242;2023-02-20T13:29:21;94623.34;;;11.87;37.51
61128;BME280;47013;42.664;23.242;2023-02-20T13:31:54;94628.72;;;11.94;37.27
61128;BME280;47013;42.664;23.242;2023-02-20T13:36:49;94631.75;;;12.07;36.83
61128;BME280;47013;42.664;23.242;2023-02-20T13:47:02;94630.56;;;12.12;39.03
61128;BME280;47013;42.664;23.242;2023-02-20T13:54:53;94626.06;;;11.76;39.60
61128;BME280;47013;42.664;23.242;2023-02-20T13:57:20;94628.41;;;11.74;39.14
61128;BME280;47013;42.664;23.242;2023-02-20T13:59:49;94636.16;;;11.87;38.90
61128;BME280;47013;42.664;23.242;2023-02-20T14:02:20;94634.59;;;11.78;38.90
61128;BME280;47013;42.664;23.242;2023-02-20T14:05:03;94631.13;;;11.74;39.02
61128;BME280;47013;42.664;23.242;2023-02-20T14:07:35;94636.53;;;11.81;38.92
61128;BME280;47013;42.664;23.242;2023-02-20T14:12:41;94627.63;;;11.77;39.43
61128;BME280;47013;42.664;23.242;2023-02-20T14:15:07;94635.41;;;11.68;39.78
61128;BME280;47013;42.664;23.242;2023-02-20T14:17:34;94616.44;;;11.61;39.38
61128;BME280;47013;42.664;23.242;2023-02-20T14:20:04;94630.44;;;11.45;40.02
61128;BME280;47013;42.664;23.242;2023-02-20T14:22:34;94622.75;;;11.33;40.53
61128;BME280;47013;42.664;23.242;2023-02-20T14:27:31;94634.44;;;11.12;40.54
61128;BME280;47013;42.664;23.242;2023-02-20T14:30:26;94641.44;;;11.03;41.33
61128;BME280;47013;42.664;23.242;2023-02-20T14:32:55;94647.28;;;10.94;41.81
61128;BME280;47013;42.664;23.242;2023-02-20T14:40:50;94641.47;;;10.81;41.97
61128;BME280;47013;42.664;23.242;2023-02-20T14:43:21;94651.56;;;10.81;42.15
61128;BME280;47013;42.664;23.242;2023-02-20T14:45:58;94652.31;;;10.78;41.89
61128;BME280;47013;42.664;23.242;2023-02-20T14:48:30;94649.22;;;10.76;42.09
61128;BME280;47013;42.664;23.242;2023-02-20T14:51:23;94653.88;;;10.72;42.45
61128;BME280;47013;42.664;23.242;2023-02-20T14:53:57;94652.34;;;10.71;42.43
61128;BME280;47013;42.664;23.242;2023-02-20T14:56:23;94646.91;;;10.74;42.70
61128;BME280;47013;42.664;23.242;2023-02-20T14:58:48;94637.22;;;10.59;42.72
61128;BME280;47013;42.664;23.242;2023-02-20T15:04:14;94650.00;;;10.62;43.16
61128;BME280;47013;42.664;23.242;2023-02-20T15:06:42;94653.88;;;10.57;43.02
61128;BME280;47013;42.664;23.242;2023-02-20T15:09:08;94668.19;;;10.51;43.33
61128;BME280;47013;42.664;23.242;2023-02-20T15:11:36;94670.91;;;10.37;43.69
61128;BME280;47013;42.664;23.242;2023-02-20T15:14:17;94682.88;;;10.28;43.61
61128;BME280;47013;42.664;23.242;2023-02-20T15:16:43;94684.44;;;10.22;43.85
61128;BME280;47013;42.664;23.242;2023-02-20T15:19:36;94681.66;;;10.15;44.37